Time;durP1;ratioP1;P1;durP2;ratioP2;P2;SDS_P1;SDS_P2;PMS_P1;PMS_P2;Temp;Humidity;BMP_temperature;BMP_pressure;BME280_temperature;BME280_humidity;BME280_pressure;Samples;Min_cycle;Max_cycle;Signal;HPM_P1;HPM_P2
2023/10/07 00:00:59;;;;;;;7.10;5.53;;;;;;;13.52;90.55;99937.94;1711649;83;25481;-64
2023/10/07 00:03:23;;;;;;;11.18;5.80;;;;;;;13.56;90.11;99931.27;1671755;84;25390;-60
2023/10/07 00:06:00;;;;;;;10.30;5.80;;;;;;;13.56;89.60;99919.03;1714871;83;25562;-62
2023/10/07 00:08:21;;;;;;;9.65;5.67;;;;;;;13.58;89.30;99927.06;1670944;85;27361;-62
2023/10/07 00:10:49;;;;;;;11.22;6.22;;;;;;;13.57;89.03;99917.34;1699587;84;25461;-62
2023/10/07 00:13:20;;;;;;;12.15;6.08;;;;;;;13.58;88.90;99927.06;1699767;84;25430;-63
2023/10/07 00:15:51;;;;;;;11.35;5.67;;;;;;;13.60;88.79;99920.75;1698802;84;26099;-57
2023/10/07 00:18:19;;;;;;;9.73;5.42;;;;;;;13.60;88.63;99922.11;1696905;84;25716;-61
2023/10/07 00:20:50;;;;;;;11.50;5.17;;;;;;;13.61;88.54;99925.03;1697386;84;27210;-59
2023/10/07 00:23:28;;;;;;;10.43;5.33;;;;;;;13.60;88.35;99911.23;1670971;85;25653;-58
2023/10/07 00:25:57;;;;;;;10.18;4.80;;;;;;;13.59;87.99;99908.28;1713665;83;25723;-58
2023/10/07 00:28:32;;;;;;;11.05;5.33;;;;;;;13.60;87.93;99900.91;1670576;85;25732;-58
2023/10/07 00:31:12;;;;;;;8.95;5.17;;;;;;;13.61;87.81;99886.20;1714360;83;25647;-59
2023/10/07 00:36:41;;;;;;;9.60;4.97;;;;;;;13.64;87.60;99886.31;1675973;85;25482;-59
2023/10/07 00:38:55;;;;;;;10.40;5.65;;;;;;;13.66;87.39;99875.11;1675931;85;25522;-59
2023/10/07 00:41:26;;;;;;;8.85;5.28;;;;;;;13.70;87.30;99881.44;1675984;85;25954;-59
2023/10/07 00:43:58;;;;;;;9.43;5.15;;;;;;;13.73;87.00;99863.67;1676039;85;25538;-60
2023/10/07 00:46:28;;;;;;;9.95;4.55;;;;;;;13.74;86.80;99856.54;1676211;85;27975;-60
2023/10/07 00:48:56;;;;;;;9.48;5.05;;;;;;;13.78;86.59;99847.13;1676020;85;25554;-60
2023/10/07 00:51:35;;;;;;;8.48;4.97;;;;;;;13.79;86.53;99846.80;1654401;85;25454;-59
2023/10/07 00:54:18;;;;;;;;;;;;;;;13.81;86.35;99844.52;1678552;85;25757;-59
2023/10/07 00:56:53;;;;;;;12.37;5.20;;;;;;;13.85;86.08;99830.25;1676106;85;25538;-59
2023/10/07 00:59:19;;;;;;;10.95;5.22;;;;;;;13.85;85.85;99821.52;1675984;85;27306;-59
2023/10/07 01:01:50;;;;;;;7.55;4.53;;;;;;;13.89;85.78;99816.19;1675891;85;25871;-59
2023/10/07 01:04:16;;;;;;;9.65;5.33;;;;;;;13.91;85.58;99814.73;1728274;83;25710;-59
2023/10/07 01:06:46;;;;;;;8.78;5.08;;;;;;;13.93;85.37;99811.67;1728182;83;25626;-59
2023/10/07 01:09:22;;;;;;;7.77;4.57;;;;;;;13.96;85.28;99804.16;1728498;83;25460;-59
2023/10/07 01:11:46;;;;;;;8.53;4.90;;;;;;;13.98;85.04;99806.77;1731955;82;27322;-58
2023/10/07 01:14:13;;;;;;;8.95;4.70;;;;;;;14.00;84.84;99807.22;1728357;83;25405;-59
2023/10/07 01:16:40;;;;;;;9.20;4.62;;;;;;;14.04;84.72;99807.32;1740987;82;25608;-60
2023/10/07 01:22:05;;;;;;;8.70;4.70;;;;;;;14.09;84.93;99807.66;1741043;82;25465;-60
2023/10/07 01:24:43;;;;;;;13.45;5.35;;;;;;;14.08;85.07;99806.88;1739408;82;28066;-60
2023/10/07 01:29:49;;;;;;;9.08;4.45;;;;;;;13.96;86.05;99803.61;1741068;82;25450;-59
2023/10/07 01:32:19;;;;;;;7.53;5.00;;;;;;;13.86;87.04;99814.96;1741038;82;26186;-59
2023/10/07 01:34:52;;;;;;;9.70;5.08;;;;;;;13.76;88.11;99812.14;1740988;82;25401;-60
2023/10/07 01:37:21;;;;;;;8.25;4.97;;;;;;;13.64;87.91;99802.07;1739641;82;27340;-60
2023/10/07 01:39:44;;;;;;;9.38;4.72;;;;;;;13.55;88.89;99805.48;1740228;82;25405;-60
2023/10/07 01:42:23;;;;;;;12.20;5.55;;;;;;;13.46;89.44;99803.44;1740983;82;25520;-60
2023/10/07 01:44:41;;;;;;;8.28;5.20;;;;;;;13.37;90.20;99804.91;1738182;82;25674;-60
2023/10/07 01:47:23;;;;;;;10.60;5.50;;;;;;;13.27;90.50;99810.19;1741032;82;25439;-59
2023/10/07 01:49:39;;;;;;;7.53;5.10;;;;;;;13.21;90.82;99819.70;1738463;82;27695;-59
2023/10/07 01:52:06;;;;;;;7.72;4.67;;;;;;;13.15;92.23;99797.97;1741005;82;25451;-59
2023/10/07 01:54:34;;;;;;;9.88;5.35;;;;;;;13.10;92.05;99791.40;1741081;82;25434;-59
2023/10/07 01:57:04;;;;;;;8.03;4.92;;;;;;;13.06;92.36;99789.14;1740980;82;25611;-59
2023/10/07 01:59:29;;;;;;;8.85;5.35;;;;;;;13.01;93.57;99776.58;1740476;82;25464;-59
2023/10/07 02:02:11;;;;;;;10.48;5.78;;;;;;;12.98;93.14;99773.17;1740859;82;27313;-59
2023/10/07 02:04:37;;;;;;;12.95;5.37;;;;;;;12.95;93.47;99764.34;1727774;83;25718;-59
2023/10/07 02:07:04;;;;;;;8.60;5.40;;;;;;;12.91;94.07;99749.87;1741003;82;25424;-60
2023/10/07 02:09:40;;;;;;;13.70;5.67;;;;;;;12.88;95.20;99755.39;1740983;82;26220;-58
2023/10/07 02:12:11;;;;;;;10.72;5.90;;;;;;;12.85;95.23;99739.78;1740311;82;25627;-58
2023/10/07 02:14:38;;;;;;;12.07;6.12;;;;;;;12.82;95.03;99730.98;1741074;82;27391;-59
2023/10/07 02:17:14;;;;;;;9.63;5.60;;;;;;;12.81;94.91;99736.73;1741126;82;25548;-60
2023/10/07 02:19:41;;;;;;;8.40;5.28;;;;;;;12.81;95.23;99723.17;1741038;82;25451;-60
2023/10/07 02:22:20;;;;;;;9.85;5.67;;;;;;;12.79;95.58;99715.36;1741005;82;25610;-60
2023/10/07 02:24:41;;;;;;;11.90;5.60;;;;;;;12.79;95.25;99728.16;1739044;82;25437;-59
2023/10/07 02:27:19;;;;;;;8.80;5.72;;;;;;;12.78;95.76;99728.70;1740942;82;27695;-58
2023/10/07 02:29:51;;;;;;;9.30;5.75;;;;;;;12.78;95.69;99749.05;1740912;82;25959;-59
2023/10/07 02:32:17;;;;;;;12.40;5.50;;;;;;;12.78;96.14;99736.05;1741049;82;25412;-59
2023/10/07 02:34:55;;;;;;;7.65;5.25;;;;;;;12.78;95.88;99725.98;1740930;82;26238;-59
2023/10/07 02:37:38;;;;;;;10.45;5.80;;;;;;;12.80;95.91;99723.72;1741039;82;25569;-56
2023/10/07 02:40:19;;;;;;;10.03;5.42;;;;;;;12.81;96.02;99717.74;1740401;82;27594;-59
2023/10/07 02:42:31;;;;;;;10.13;5.83;;;;;;;12.80;96.16;99715.58;1737481;82;25607;-58
2023/10/07 02:47:54;;;;;;;10.32;5.50;;;;;;;12.81;96.82;99704.95;1740970;82;25615;-58
2023/10/07 02:50:25;;;;;;;9.93;5.37;;;;;;;12.80;96.79;99703.36;1740312;82;25406;-58
2023/10/07 02:52:50;;;;;;;11.05;5.42;;;;;;;12.80;96.69;99693.86;1740766;82;28354;-58
2023/10/07 02:57:55;;;;;;;7.40;5.17;;;;;;;12.82;96.67;99686.74;1741067;82;25497;-57
2023/10/07 03:00:35;;;;;;;10.58;5.67;;;;;;;12.82;97.11;99682.67;1739614;82;26170;-59
2023/10/07 03:05:58;;;;;;;8.18;5.58;;;;;;;12.83;96.54;99683.69;1741119;82;27703;-59
2023/10/07 03:08:21;;;;;;;8.23;5.72;;;;;;;12.84;96.76;99686.64;1738647;82;25491;-58
2023/10/07 03:10:55;;;;;;;10.63;5.20;;;;;;;12.85;96.49;99680.64;1741127;82;25447;-55
2023/10/07 03:13:26;;;;;;;9.58;5.15;;;;;;;12.85;96.64;99674.64;1715965;82;25687;-56
2023/10/07 03:16:11;;;;;;;9.35;4.65;;;;;;;12.85;96.34;99671.92;1741129;82;25463;-58
2023/10/07 03:18:38;;;;;;;13.83;5.87;;;;;;;12.87;96.52;99668.88;1741106;82;27367;-57
2023/10/07 03:21:11;;;;;;;9.60;4.80;;;;;;;12.88;96.18;99671.83;1741061;82;25552;-58
2023/10/07 03:23:47;;;;;;;8.70;5.00;;;;;;;12.88;95.98;99656.33;1741106;82;25386;-57
2023/10/07 03:26:19;;;;;;;7.85;4.85;;;;;;;12.90;95.67;99655.99;1741110;82;26162;-55
2023/10/07 03:28:55;;;;;;;9.48;4.70;;;;;;;12.91;95.68;99654.88;1741195;82;25584;-57
2023/10/07 03:34:12;;;;;;;8.05;4.45;;;;;;;12.93;95.25;99639.03;1741059;82;25647;-57
2023/10/07 03:39:27;;;;;;;10.55;4.40;;;;;;;12.95;94.67;99639.47;1741071;82;26318;-54
2023/10/07 03:41:55;;;;;;;9.10;4.58;;;;;;;12.97;94.69;99633.70;1740280;82;25649;-54
2023/10/07 03:44:25;;;;;;;8.88;5.20;;;;;;;12.98;94.56;99617.66;1741062;82;27364;-55
2023/10/07 03:46:57;;;;;;;12.47;4.83;;;;;;;13.00;94.25;99627.61;1741011;81;25650;-55
2023/10/07 03:49:33;;;;;;;8.53;5.40;;;;;;;13.00;94.07;99621.59;1741095;82;25495;-54
2023/10/07 03:52:08;;;;;;;10.10;4.22;;;;;;;13.03;93.99;99611.42;1739140;82;25638;-58
2023/10/07 03:54:29;;;;;;;11.28;5.17;;;;;;;13.06;93.73;99608.03;1739040;82;25459;-57
2023/10/07 03:57:00;;;;;;;9.73;4.45;;;;;;;13.08;93.40;99612.55;1741098;82;26894;-57
2023/10/07 03:59:39;;;;;;;7.83;4.62;;;;;;;13.11;93.35;99612.98;1741014;82;25742;-59
2023/10/07 04:05:00;;;;;;;7.28;4.67;;;;;;;13.17;92.81;99602.13;1741072;82;25673;-59
2023/10/07 04:07:31;;;;;;;7.80;4.58;;;;;;;13.21;92.30;99603.01;1741122;82;25466;-56
2023/10/07 04:10:12;;;;;;;8.98;4.35;;;;;;;13.26;92.19;99602.77;1741105;82;27321;-58
2023/10/07 04:12:32;;;;;;;9.40;4.33;;;;;;;13.29;92.02;99608.88;1738781;82;25426;-58
2023/10/07 04:15:02;;;;;;;10.15;4.90;;;;;;;13.31;91.97;99595.73;1740320;82;25547;-58
2023/10/07 04:17:31;;;;;;;9.43;3.85;;;;;;;13.34;91.95;99595.09;1740981;82;25965;-58
2023/10/07 04:20:13;;;;;;;;;;;;;;;13.35;91.59;99595.87;1743665;81;25594;-58
2023/10/07 04:22:25;;;;;;;8.80;4.33;;;;;;;13.37;91.57;99601.77;1737910;82;27325;-58
2023/10/07 04:24:51;;;;;;;6.90;3.75;;;;;;;13.37;91.44;99590.33;1740961;82;25545;-58
2023/10/07 04:27:20;;;;;;;5.53;3.58;;;;;;;13.40;91.23;99583.40;1741024;82;25586;-57
2023/10/07 04:29:51;;;;;;;;;;;;;;;13.42;91.08;99587.94;1743538;82;25527;-58
2023/10/07 04:32:21;;;;;;;9.23;3.98;;;;;;;13.44;91.01;99581.02;1740966;82;25431;-59
2023/10/07 04:35:15;;;;;;;7.58;3.83;;;;;;;13.47;90.77;99587.70;1741074;82;27356;-59
2023/10/07 04:37:47;;;;;;;9.20;4.30;;;;;;;13.50;90.56;99582.13;1736848;82;25548;-59
2023/10/07 04:42:52;;;;;;;8.18;4.35;;;;;;;13.58;89.81;99562.95;1741031;82;25564;-59
2023/10/07 04:45:24;;;;;;;;;;;;;;;13.66;89.62;99580.26;1740910;82;25579;-59
2023/10/07 04:48:06;;;;;;;8.38;3.67;;;;;;;13.70;89.61;99577.05;1741057;82;27190;-59
2023/10/07 04:50:33;;;;;;;7.65;3.95;;;;;;;13.73;89.32;99567.44;1738192;82;26133;-57
2023/10/07 04:53:02;;;;;;;9.05;4.55;;;;;;;13.75;89.07;99576.80;1739809;81;25791;-59
2023/10/07 04:55:26;;;;;;;9.25;3.72;;;;;;;13.80;89.05;99573.05;1739823;82;25986;-58
2023/10/07 05:00:35;;;;;;;8.10;3.87;;;;;;;13.83;89.13;99579.94;1740990;82;28006;-57
2023/10/07 05:03:03;;;;;;;7.97;3.70;;;;;;;13.85;89.15;99574.73;1739419;82;25459;-56
2023/10/07 05:05:35;;;;;;;11.68;4.80;;;;;;;13.83;89.41;99577.22;1749236;81;25575;-59
2023/10/07 05:08:17;;;;;;;7.25;4.00;;;;;;;13.84;89.57;99568.48;1749197;82;25633;-54
2023/10/07 05:10:52;;;;;;;7.53;4.70;;;;;;;13.81;89.92;99580.86;1748103;81;25450;-56
2023/10/07 05:13:13;;;;;;;7.10;3.80;;;;;;;13.79;90.19;99568.19;1747415;81;28086;-58
2023/10/07 05:15:41;;;;;;;4.90;3.70;;;;;;;13.78;90.19;99572.03;1749093;82;25390;-59
2023/10/07 05:18:13;;;;;;;9.68;3.92;;;;;;;13.77;90.20;99577.81;1749250;82;25553;-58
2023/10/07 05:20:46;;;;;;;8.00;4.10;;;;;;;13.76;90.99;99581.69;1749201;82;26688;-59
2023/10/07 05:23:14;;;;;;;6.55;4.37;;;;;;;13.75;91.07;99561.85;1749060;82;25482;-59
2023/10/07 05:25:49;;;;;;;8.85;4.47;;;;;;;13.74;91.69;99564.92;1748328;82;27336;-59
2023/10/07 05:28:21;;;;;;;8.63;4.30;;;;;;;13.71;91.72;99548.75;1749206;82;25489;-59
2023/10/07 05:30:52;;;;;;;11.33;4.45;;;;;;;13.68;92.21;99552.16;1749368;82;25557;-56
2023/10/07 05:33:27;;;;;;;8.70;4.10;;;;;;;13.66;92.76;99547.65;1749080;82;25568;-58
2023/10/07 05:36:13;;;;;;;11.25;4.28;;;;;;;13.63;92.83;99556.48;1749290;82;25566;-55
2023/10/07 05:38:47;;;;;;;10.28;4.87;;;;;;;13.61;93.52;99552.76;1748983;82;28337;-57
2023/10/07 05:41:17;;;;;;;8.75;4.47;;;;;;;13.59;93.58;99551.54;1749124;82;25760;-58
2023/10/07 05:43:48;;;;;;;10.82;4.58;;;;;;;13.54;94.08;99551.22;1749259;82;25562;-58
2023/10/07 05:46:14;;;;;;;11.57;4.95;;;;;;;13.56;94.26;99573.39;1749147;82;25538;-58
2023/10/07 05:48:44;;;;;;;12.50;4.87;;;;;;;13.55;94.54;99581.87;1749169;82;25822;-58
2023/10/07 05:51:16;;;;;;;11.93;4.83;;;;;;;13.55;94.84;99588.13;1749193;82;27218;-58
2023/10/07 05:53:48;;;;;;;8.73;4.90;;;;;;;13.56;94.83;99584.83;1749133;82;25544;-58
2023/10/07 05:56:18;;;;;;;8.80;5.05;;;;;;;13.58;95.58;99594.78;1749324;82;25397;-59
2023/10/07 05:58:45;;;;;;;11.00;4.80;;;;;;;13.59;95.81;99594.44;1749222;82;25703;-57
2023/10/07 06:01:14;;;;;;;10.68;4.85;;;;;;;13.61;95.46;99585.94;1749329;82;25631;-55
2023/10/07 06:03:42;;;;;;;6.78;5.03;;;;;;;13.63;95.60;99584.44;1749086;82;27304;-59
2023/10/07 06:06:09;;;;;;;11.75;5.33;;;;;;;13.68;95.74;99564.97;1749176;82;25612;-59
2023/10/07 06:08:37;;;;;;;8.53;5.05;;;;;;;13.74;95.86;99588.02;1749176;82;25533;-58
2023/10/07 06:11:05;;;;;;;7.50;4.80;;;;;;;13.79;95.57;99582.33;1749126;82;26221;-59
2023/10/07 06:13:33;;;;;;;18.30;4.80;;;;;;;13.85;95.67;99597.84;1749172;82;25383;-58
2023/10/07 06:16:04;;;;;;;10.70;4.65;;;;;;;13.91;95.61;99576.04;1749170;82;27319;-58
2023/10/07 06:18:31;;;;;;;11.25;5.30;;;;;;;13.98;95.31;99573.53;1736437;82;25584;-59
2023/10/07 06:21:11;;;;;;;9.38;5.10;;;;;;;14.07;94.95;99554.33;1748304;82;25628;-58
2023/10/07 06:23:25;;;;;;;6.37;4.50;;;;;;;14.14;94.61;99562.08;1746000;82;25619;-57
2023/10/07 06:25:53;;;;;;;9.48;4.58;;;;;;;14.24;94.34;99584.47;1749255;82;25531;-57
2023/10/07 06:31:11;;;;;;;8.43;4.72;;;;;;;14.38;93.67;99567.91;1749328;81;25481;-59
2023/10/07 06:33:42;;;;;;;12.25;4.53;;;;;;;14.47;93.18;99566.94;1749409;82;25455;-59
2023/10/07 06:36:14;;;;;;;9.93;4.50;;;;;;;14.56;92.69;99562.12;1749285;82;26205;-59
2023/10/07 06:38:46;;;;;;;12.85;4.45;;;;;;;14.63;92.29;99565.61;1749383;81;25599;-60
2023/10/07 06:41:13;;;;;;;7.83;4.22;;;;;;;14.69;91.93;99556.81;1749309;81;27324;-57
2023/10/07 06:43:43;;;;;;;10.43;4.60;;;;;;;14.75;91.44;99560.83;1749159;81;25557;-56
2023/10/07 06:46:12;;;;;;;6.17;3.90;;;;;;;14.81;91.23;99557.25;1749328;82;25544;-59
2023/10/07 06:48:42;;;;;;;7.58;4.05;;;;;;;14.87;90.99;99560.50;1749199;82;25524;-58
2023/10/07 06:51:11;;;;;;;9.80;4.37;;;;;;;14.91;90.69;99549.91;1749355;82;25410;-59
2023/10/07 06:53:42;;;;;;;7.85;4.30;;;;;;;14.96;90.59;99573.33;1749461;82;28049;-59
2023/10/07 06:56:06;;;;;;;9.25;4.67;;;;;;;15.00;90.29;99574.77;1744543;82;25624;-59
2023/10/07 06:58:35;;;;;;;7.65;4.40;;;;;;;15.05;89.93;99570.40;1727379;83;25641;-59
2023/10/07 07:01:16;;;;;;;8.98;4.12;;;;;;;15.08;89.78;99571.84;1722566;83;26351;-58
2023/10/07 07:03:38;;;;;;;5.47;3.70;;;;;;;15.15;89.90;99550.77;1687155;83;25468;-58
2023/10/07 07:06:16;;;;;;;5.33;4.00;;;;;;;15.20;89.60;99582.39;1729933;82;27673;-58
2023/10/07 07:08:34;;;;;;;9.80;3.70;;;;;;;15.24;89.25;99584.05;1728207;82;25600;-58
2023/10/07 07:11:02;;;;;;;5.72;3.40;;;;;;;15.30;89.08;99572.29;1729887;83;25432;-60
2023/10/07 07:13:34;;;;;;;7.45;3.45;;;;;;;15.36;88.70;99574.14;1699135;84;25470;-60
2023/10/07 07:16:06;;;;;;;6.42;3.77;;;;;;;15.39;88.49;99589.23;1729339;82;25580;-59
2023/10/07 07:18:27;;;;;;;6.65;4.05;;;;;;;15.41;88.36;99561.59;1729216;82;27885;-59
2023/10/07 07:23:32;;;;;;;8.00;3.95;;;;;;;15.50;88.03;99565.69;1729999;83;25544;-57
2023/10/07 07:28:33;;;;;;;5.87;4.08;;;;;;;15.62;87.25;99569.42;1699312;84;25458;-59
2023/10/07 07:31:00;;;;;;;9.53;4.20;;;;;;;15.67;87.22;99559.00;1729908;83;27722;-59
2023/10/07 07:33:37;;;;;;;5.50;3.22;;;;;;;15.73;86.64;99564.16;1729821;82;25561;-60
2023/10/07 07:36:18;;;;;;;7.08;3.83;;;;;;;15.76;86.78;99564.84;1729957;82;25409;-59
2023/10/07 07:38:44;;;;;;;7.28;4.22;;;;;;;15.80;86.87;99554.22;1697218;84;25991;-60
2023/10/07 07:41:07;;;;;;;12.13;4.33;;;;;;;15.86;86.58;99559.56;1726897;82;25464;-60
2023/10/07 07:43:36;;;;;;;6.87;4.40;;;;;;;15.90;86.46;99565.08;1729871;82;27217;-59
2023/10/07 07:48:45;;;;;;;6.03;3.67;;;;;;;15.94;86.11;99561.86;1699097;84;25583;-59
2023/10/07 07:51:17;;;;;;;11.28;4.35;;;;;;;15.96;85.70;99565.59;1729196;82;26598;-60
2023/10/07 07:53:41;;;;;;;5.10;3.67;;;;;;;16.02;85.63;99560.03;1729259;82;25575;-59
2023/10/07 07:56:13;;;;;;;9.23;3.52;;;;;;;16.12;85.07;99583.97;1729842;83;27356;-58
2023/10/07 07:58:39;;;;;;;5.85;3.83;;;;;;;16.14;85.21;99543.50;1698739;84;25479;-60
2023/10/07 08:01:06;;;;;;;5.58;3.60;;;;;;;16.19;84.65;99575.13;1729856;83;25425;-58
2023/10/07 08:03:35;;;;;;;5.75;3.70;;;;;;;16.24;84.58;99545.61;1729792;83;25693;-58
2023/10/07 08:06:06;;;;;;;;;;;;;;;16.31;84.63;99531.30;1724344;82;25601;-60
2023/10/07 08:08:36;;;;;;;8.73;3.72;;;;;;;16.42;84.87;99549.20;1727238;83;27388;-60
2023/10/07 08:11:01;;;;;;;6.37;4.00;;;;;;;16.49;84.71;99561.58;1726867;83;25435;-58
2023/10/07 08:13:27;;;;;;;7.45;4.05;;;;;;;16.55;83.55;99552.49;1726766;82;25653;-59
2023/10/07 08:15:56;;;;;;;7.20;3.87;;;;;;;16.62;84.50;99549.89;1727029;82;25967;-59
2023/10/07 08:18:28;;;;;;;4.58;3.47;;;;;;;16.75;84.08;99551.26;1727381;83;25410;-60
2023/10/07 08:20:56;;;;;;;8.90;3.77;;;;;;;16.89;84.28;99562.17;1726784;83;27888;-58
2023/10/07 08:23:28;;;;;;;6.00;3.30;;;;;;;17.00;83.75;99553.56;1726819;83;25611;-60
2023/10/07 08:25:58;;;;;;;6.60;3.62;;;;;;;17.12;82.94;99552.55;1726703;83;25406;-61
2023/10/07 08:28:19;;;;;;;8.60;3.98;;;;;;;17.16;82.10;99561.00;1726170;83;26316;-60
2023/10/07 08:30:47;;;;;;;8.63;3.33;;;;;;;17.24;81.61;99563.23;1727239;83;25643;-60
2023/10/07 08:33:24;;;;;;;5.62;3.80;;;;;;;17.29;82.11;99542.41;1727209;83;27876;-60
2023/10/07 08:35:51;;;;;;;9.43;3.62;;;;;;;17.31;81.20;99559.20;1727148;83;25514;-60
2023/10/07 08:38:29;;;;;;;7.30;3.08;;;;;;;17.26;80.66;99550.56;1727212;83;25583;-62
2023/10/07 08:41:07;;;;;;;6.00;3.55;;;;;;;17.22;80.66;99555.98;1726197;83;25639;-58
2023/10/07 08:44:01;;;;;;;4.95;3.55;;;;;;;17.20;80.65;99541.11;1727242;82;25457;-61
2023/10/07 08:46:19;;;;;;;9.40;5.17;;;;;;;17.14;80.30;99544.17;1721561;83;27706;-64
2023/10/07 08:48:56;;;;;;;4.65;4.00;;;;;;;17.11;80.34;99561.33;1700711;84;25750;-62
2023/10/07 08:51:24;;;;;;;9.18;5.90;;;;;;;17.10;80.54;99559.74;1700045;84;25640;-64
2023/10/07 08:54:04;;;;;;;8.58;4.30;;;;;;;17.08;80.22;99557.19;1700766;84;26269;-63
2023/10/07 08:56:28;;;;;;;5.55;3.37;;;;;;;17.05;80.75;99560.06;1699044;84;25530;-64
2023/10/07 08:58:57;;;;;;;7.90;3.67;;;;;;;17.13;81.23;99574.63;1700870;84;27345;-64
2023/10/07 09:01:24;;;;;;;8.70;4.10;;;;;;;17.22;81.11;99574.34;1700865;84;25394;-64
2023/10/07 09:03:56;;;;;;;8.48;4.12;;;;;;;17.26;80.72;99577.89;1700765;84;25407;-64
2023/10/07 09:06:20;;;;;;;8.85;3.72;;;;;;;17.30;80.26;99604.70;1682900;83;25963;-60
2023/10/07 09:08:47;;;;;;;10.15;3.80;;;;;;;17.33;79.93;99594.38;1682143;85;25632;-62
2023/10/07 09:11:18;;;;;;;7.40;3.62;;;;;;;17.29;79.86;99588.09;1682197;84;27395;-60
2023/10/07 09:13:47;;;;;;;5.37;3.60;;;;;;;17.25;79.82;99577.70;1682099;84;25636;-58
2023/10/07 09:16:15;;;;;;;7.40;3.42;;;;;;;17.23;79.88;99573.16;1682187;85;25567;-60
2023/10/07 09:18:41;;;;;;;7.75;3.40;;;;;;;17.24;80.08;99591.14;1682099;85;26000;-61
2023/10/07 09:21:19;;;;;;;8.55;4.90;;;;;;;17.42;80.31;99587.25;1682153;85;25456;-60
2023/10/07 09:23:43;;;;;;;7.45;3.77;;;;;;;17.58;80.24;99573.39;1680519;85;27412;-61
2023/10/07 09:26:21;;;;;;;6.08;3.45;;;;;;;17.63;79.30;99601.18;1682052;85;25683;-61
2023/10/07 09:28:47;;;;;;;5.22;3.15;;;;;;;17.59;79.17;99586.69;1681294;85;25459;-60
2023/10/07 09:31:12;;;;;;;3.87;2.80;;;;;;;17.55;78.82;99572.98;1681931;85;34711;-62
2023/10/07 09:33:41;;;;;;;6.80;3.40;;;;;;;17.53;78.83;99586.22;1682160;85;25589;-60
2023/10/07 09:41:43;;;;;;;7.78;3.42;;;;;;;17.50;78.51;99593.02;1663620;85;25470;-59
2023/10/07 09:44:26;;;;;;;7.90;3.62;;;;;;;17.43;78.70;99592.94;1681793;85;26328;-60
2023/10/07 09:46:41;;;;;;;8.80;4.05;;;;;;;17.36;78.43;99597.73;1677644;85;25564;-62
2023/10/07 09:49:07;;;;;;;6.45;3.30;;;;;;;17.28;78.46;99579.67;1682216;85;27353;-60
2023/10/07 09:51:44;;;;;;;5.05;3.12;;;;;;;17.21;78.44;99595.98;1682067;84;25707;-60
2023/10/07 09:54:27;;;;;;;3.98;3.00;;;;;;;17.14;78.58;99591.98;1681181;85;25773;-60
2023/10/07 09:57:42;;;;;;;6.58;3.15;;;;;;;17.11;78.76;99613.80;1681815;85;26377;-60
2023/10/07 10:03:28;;;;;;;8.68;5.97;;;;;;;17.08;79.02;99607.14;1681127;85;27210;-61
2023/10/07 10:06:25;;;;;;;4.50;3.00;;;;;;;17.06;78.67;99608.09;1678338;84;25968;-62
2023/10/07 10:09:08;;;;;;;5.65;2.50;;;;;;;17.04;78.65;99609.02;1700694;84;25636;-61
2023/10/07 10:11:47;;;;;;;4.28;2.30;;;;;;;17.04;78.83;99624.05;1699574;84;25969;-65
2023/10/07 10:16:54;;;;;;;4.45;2.33;;;;;;;16.99;78.51;99624.36;1701101;84;27739;-62
2023/10/07 10:19:47;;;;;;;5.00;2.45;;;;;;;16.98;78.98;99626.91;1700759;84;25444;-59
2023/10/07 10:22:24;;;;;;;6.20;2.40;;;;;;;16.99;78.72;99632.56;1701044;84;25470;-59
2023/10/07 10:24:48;;;;;;;6.50;2.50;;;;;;;17.04;79.29;99624.05;1699734;84;25536;-63
2023/10/07 10:27:20;;;;;;;6.75;2.45;;;;;;;17.12;79.33;99604.45;1700964;84;25642;-61
2023/10/07 10:30:04;;;;;;;3.92;2.33;;;;;;;17.17;79.13;99629.50;1701006;84;27039;-60
2023/10/07 10:32:36;;;;;;;3.70;2.50;;;;;;;17.24;79.07;99606.17;1700872;84;25507;-60
2023/10/07 10:35:11;;;;;;;6.03;2.40;;;;;;;17.28;78.65;99615.20;1699713;84;25628;-59
2023/10/07 10:37:37;;;;;;;4.95;2.30;;;;;;;17.32;78.68;99613.31;1700982;84;25606;-61
2023/10/07 10:40:17;;;;;;;5.42;3.37;;;;;;;17.33;78.44;99613.50;1700978;84;25619;-61
2023/10/07 10:42:53;;;;;;;4.58;2.33;;;;;;;17.34;78.42;99604.94;1700939;84;27320;-62
2023/10/07 10:45:24;;;;;;;3.40;2.80;;;;;;;17.40;78.49;99603.24;1699786;84;25601;-62
2023/10/07 10:47:54;;;;;;;3.22;2.30;;;;;;;17.45;78.33;99607.02;1700928;84;25473;-60
2023/10/07 10:50:24;;;;;;;7.22;2.70;;;;;;;17.46;77.77;99602.55;1700889;84;25620;-62
2023/10/07 10:52:54;;;;;;;3.20;2.22;;;;;;;17.48;77.79;99600.81;1701089;84;25438;-61
2023/10/07 10:55:24;;;;;;;3.95;2.60;;;;;;;17.50;77.28;99606.69;1700976;84;27672;-58
2023/10/07 10:57:50;;;;;;;5.28;2.20;;;;;;;17.51;77.52;99607.69;1700659;84;31900;-60
2023/10/07 11:00:24;;;;;;;3.67;2.00;;;;;;;17.57;76.63;99618.29;1700931;84;25569;-59
2023/10/07 11:02:53;;;;;;;3.87;2.12;;;;;;;17.60;76.40;99598.41;1700449;84;26615;-63
2023/10/07 11:05:22;;;;;;;;;;;;;;;17.61;75.83;99602.14;1698522;84;25654;-60
2023/10/07 11:07:50;;;;;;;4.08;1.90;;;;;;;17.63;75.84;99595.71;1681022;85;28040;-62
2023/10/07 11:10:23;;;;;;;6.62;4.40;;;;;;;17.64;75.36;99609.60;1681152;84;25639;-63
2023/10/07 11:12:52;;;;;;;5.83;1.85;;;;;;;17.66;75.77;99617.44;1680860;84;25723;-63
2023/10/07 11:15:24;;;;;;;4.78;1.70;;;;;;;17.66;75.44;99620.95;1680973;85;26283;-63
2023/10/07 11:18:12;;;;;;;;;;;;;;;17.65;75.07;99619.95;1683316;85;25853;-60
2023/10/07 11:20:33;;;;;;;3.02;2.10;;;;;;;17.65;75.00;99626.79;1680844;85;27758;-63
2023/10/07 11:23:00;;;;;;;2.98;1.55;;;;;;;17.64;75.08;99629.30;1682146;85;25501;-62
2023/10/07 11:25:27;;;;;;;3.58;2.05;;;;;;;17.62;74.99;99625.60;1682198;85;25429;-63
2023/10/07 11:27:54;;;;;;;8.13;2.30;;;;;;;17.62;75.08;99638.47;1682276;85;26357;-56
2023/10/07 11:30:22;;;;;;;2.52;1.55;;;;;;;17.61;75.06;99621.28;1682310;84;25474;-62
2023/10/07 11:32:48;;;;;;;5.20;2.12;;;;;;;17.62;75.18;99629.70;1682218;85;27737;-62
2023/10/07 11:35:20;;;;;;;4.50;1.80;;;;;;;;;;1682135;85;25560;-63
2023/10/07 11:37:57;;;;;;;3.90;1.75;;;;;;;17.60;74.47;99632.00;1682259;85;25501;-62
2023/10/07 11:40:19;;;;;;;5.53;1.90;;;;;;;17.58;74.65;99625.34;1681539;85;26305;-61
2023/10/07 11:42:46;;;;;;;7.60;2.67;;;;;;;17.58;74.69;99637.06;1682241;85;25634;-62
2023/10/07 11:45:16;;;;;;;4.80;1.42;;;;;;;17.55;74.52;99634.50;1682176;85;27682;-63
2023/10/07 11:47:44;;;;;;;5.20;1.70;;;;;;;17.53;74.61;99626.45;1682018;85;25635;-60
2023/10/07 11:50:12;;;;;;;4.45;1.90;;;;;;;17.51;74.17;99636.98;1682379;85;34749;-63
2023/10/07 11:52:40;;;;;;;3.30;1.50;;;;;;;17.49;74.66;99640.08;1682183;85;26562;-63
2023/10/07 11:55:09;;;;;;;5.28;1.47;;;;;;;17.46;74.25;99641.41;1682318;84;25469;-63
2023/10/07 11:57:39;;;;;;;4.60;1.32;;;;;;;17.39;74.23;99629.80;1682356;84;27330;-63
2023/10/07 12:00:22;;;;;;;4.42;1.82;;;;;;;17.35;74.17;99622.92;1682173;84;25657;-63
2023/10/07 12:02:40;;;;;;;4.55;1.47;;;;;;;17.29;74.46;99642.75;1680572;85;25687;-61
2023/10/07 12:05:10;;;;;;;2.20;1.35;;;;;;;17.27;74.57;99630.03;1682197;85;25643;-61
2023/10/07 12:07:36;;;;;;;3.35;1.40;;;;;;;17.24;74.81;99624.72;1700182;84;25406;-61
2023/10/07 12:10:15;;;;;;;3.80;1.77;;;;;;;17.20;74.76;99628.55;1700860;84;27363;-61
2023/10/07 12:12:33;;;;;;;2.12;1.47;;;;;;;17.18;74.75;99633.05;1699064;84;26111;-61
2023/10/07 12:14:59;;;;;;;2.98;1.60;;;;;;;17.12;74.80;99627.68;1700880;84;25657;-61
2023/10/07 12:17:26;;;;;;;4.62;1.70;;;;;;;17.06;74.87;99640.88;1700807;84;26687;-61
2023/10/07 12:19:52;;;;;;;4.60;1.50;;;;;;;16.99;74.87;99626.54;1700874;84;25436;-62
2023/10/07 12:22:18;;;;;;;3.12;1.70;;;;;;;16.93;75.08;99632.69;1700831;84;27384;-61
2023/10/07 12:24:44;;;;;;;3.65;1.95;;;;;;;16.87;75.25;99647.22;1700734;84;25676;-62
2023/10/07 12:27:10;;;;;;;4.80;1.77;;;;;;;16.84;75.51;99649.34;1700839;84;25661;-62
2023/10/07 12:29:38;;;;;;;4.20;1.60;;;;;;;16.80;75.76;99658.81;1700755;84;25690;-62
2023/10/07 12:32:05;;;;;;;8.53;7.08;;;;;;;16.81;76.07;99654.91;1700868;84;25631;-61
2023/10/07 12:34:31;;;;;;;26.05;19.77;;;;;;;16.83;76.18;99645.58;1700899;84;27691;-65
2023/10/07 12:36:57;;;;;;;6.72;2.33;;;;;;;16.83;76.26;99660.59;1699972;84;25646;-65
2023/10/07 12:39:23;;;;;;;3.22;2.22;;;;;;;16.81;75.74;99659.59;1699454;84;25740;-64
2023/10/07 12:41:50;;;;;;;5.25;2.30;;;;;;;16.81;75.56;99662.33;1699591;84;25766;-60